createdAt,value
2022-09-03T00:00:16.333Z,963.0300
2022-09-03T00:01:18.578Z,963.0500
2022-09-03T00:02:20.863Z,963.0500
2022-09-03T00:03:23.013Z,963.0500
2022-09-03T00:04:25.797Z,963.0700
2022-09-03T00:05:27.362Z,963.1500
2022-09-03T00:06:29.546Z,963.1300
2022-09-03T00:07:31.708Z,963.1500
2022-09-03T00:08:33.937Z,963.1300
2022-09-03T00:09:33.934Z,963.1500
2022-09-03T00:10:36.150Z,963.1100
2022-09-03T00:11:38.318Z,963.1300
2022-09-03T00:12:40.533Z,963.1700
2022-09-03T00:13:42.786Z,963.1900
2022-09-03T00:14:44.985Z,963.2500
2022-09-03T00:15:47.233Z,963.2700
2022-09-03T00:16:49.374Z,963.2900
2022-09-03T00:17:51.532Z,963.3300
2022-09-03T00:18:53.712Z,963.3500
2022-09-03T00:19:55.918Z,963.4100
2022-09-03T00:20:58.136Z,963.4500
2022-09-03T00:22:00.328Z,963.4300
2022-09-03T00:23:02.492Z,963.3700
2022-09-03T00:24:04.679Z,963.3900
2022-09-03T00:25:06.842Z,963.4100
2022-09-03T00:26:09.021Z,963.4100
2022-09-03T00:27:11.261Z,963.4100
2022-09-03T00:28:13.454Z,963.4500
2022-09-03T00:29:15.633Z,963.4300
2022-09-03T00:30:17.237Z,963.4300
2022-09-03T00:31:17.967Z,963.4700
2022-09-03T00:32:20.185Z,963.4300
2022-09-03T00:33:22.410Z,963.4700
2022-09-03T00:34:24.663Z,963.4500
2022-09-03T00:35:26.866Z,963.4300
2022-09-03T00:36:29.124Z,963.3900
2022-09-03T00:37:38.093Z,963.3900
2022-09-03T00:38:33.561Z,963.4100
2022-09-03T00:39:36.090Z,963.4300
2022-09-03T00:40:37.963Z,963.4300
2022-09-03T00:41:40.132Z,963.4700
2022-09-03T00:42:42.357Z,963.5000
2022-09-03T00:43:42.425Z,963.5200
2022-09-03T00:44:44.690Z,963.5400
2022-09-03T00:45:46.840Z,963.6000
2022-09-03T00:46:49.126Z,963.6600
2022-09-03T00:47:51.231Z,963.7000
2022-09-03T00:48:53.455Z,963.7600
2022-09-03T00:49:55.665Z,963.7800
2022-09-03T00:50:57.793Z,963.8200
2022-09-03T00:52:00.058Z,963.8200
2022-09-03T00:53:02.267Z,963.8600
2022-09-03T00:54:04.501Z,963.8800
2022-09-03T00:55:06.732Z,963.8800
2022-09-03T00:56:08.903Z,963.8400
2022-09-03T00:57:11.111Z,963.8400
2022-09-03T00:58:13.322Z,963.8000
2022-09-03T00:59:13.381Z,963.8000
2022-09-03T01:00:15.601Z,963.7400
2022-09-03T01:01:17.864Z,963.7400
2022-09-03T01:02:20.076Z,963.7400
2022-09-03T01:03:22.179Z,963.7200
2022-09-03T01:04:24.394Z,963.6800
2022-09-03T01:05:26.620Z,963.6800
2022-09-03T01:06:28.817Z,963.6600
2022-09-03T01:07:31.230Z,963.6600
2022-09-03T01:08:33.240Z,963.6400
2022-09-03T01:09:35.456Z,963.6600
2022-09-03T01:10:37.689Z,963.6200
2022-09-03T01:11:39.891Z,963.6400
2022-09-03T01:12:42.121Z,963.6800
2022-09-03T01:13:44.352Z,963.6800
2022-09-03T01:14:44.410Z,963.7200
2022-09-03T01:15:46.702Z,963.7000
2022-09-03T01:16:48.834Z,963.7000
2022-09-03T01:17:51.022Z,963.7200
2022-09-03T01:18:53.219Z,963.7000
2022-09-03T01:19:55.468Z,963.6800
2022-09-03T01:20:57.668Z,963.6800
2022-09-03T01:21:59.849Z,963.6800
2022-09-03T01:23:02.091Z,963.6800
2022-09-03T01:24:04.343Z,963.6600
2022-09-03T01:25:06.571Z,963.6600
2022-09-03T01:26:02.961Z,963.6600
2022-09-03T01:28:04.649Z,963.5800
2022-09-03T01:29:06.849Z,963.5800
2022-09-03T01:30:09.036Z,963.5600
2022-09-03T01:31:11.417Z,963.5400
2022-09-03T01:32:13.361Z,963.5000
2022-09-03T01:33:15.548Z,963.4700
2022-09-03T01:34:17.728Z,963.3900
2022-09-03T01:35:19.877Z,963.3500
2022-09-03T01:36:22.052Z,963.3700
2022-09-03T01:37:26.260Z,963.4500
2022-09-03T01:38:28.370Z,963.4800
2022-09-03T01:39:26.359Z,963.5200
2022-09-03T01:40:28.494Z,963.5000
2022-09-03T01:41:30.772Z,963.4700
2022-09-03T01:42:32.890Z,963.4500
2022-09-03T01:43:36.869Z,963.3700
2022-09-03T01:44:37.288Z,963.3700
2022-09-03T01:45:39.484Z,963.3500
2022-09-03T01:46:41.827Z,963.3500
2022-09-03T01:47:43.984Z,963.3100
2022-09-03T01:48:46.234Z,963.2700
2022-09-03T01:49:48.462Z,963.2300
2022-09-03T01:50:50.693Z,963.1900
2022-09-03T01:51:52.952Z,963.1900
2022-09-03T01:52:11.098Z,963.1900
2022-09-03T01:53:12.298Z,963.1500
2022-09-03T01:54:17.964Z,963.1900
2022-09-03T01:55:16.700Z,963.1900
2022-09-03T01:56:18.933Z,963.2100
2022-09-03T01:57:37.045Z,963.2100
2022-09-03T01:58:23.410Z,963.2300
2022-09-03T01:59:25.512Z,963.2300
2022-09-03T02:00:27.690Z,963.2500
2022-09-03T02:01:29.959Z,963.2900
2022-09-03T02:02:32.208Z,963.3300
2022-09-03T02:03:34.332Z,963.3500
2022-09-03T02:04:36.569Z,963.3500
2022-09-03T02:05:38.811Z,963.3300
2022-09-03T02:06:41.040Z,963.3300
2022-09-03T02:07:41.166Z,963.3100
2022-09-03T02:08:43.385Z,963.3100
2022-09-03T02:09:45.629Z,963.2900
2022-09-03T02:10:47.877Z,963.2500
2022-09-03T02:11:50.134Z,963.2300
2022-09-03T02:12:52.411Z,963.2300
2022-09-03T02:13:54.645Z,963.2100
2022-09-03T02:14:56.915Z,963.2300
2022-09-03T02:15:59.223Z,963.2300
2022-09-03T02:16:59.297Z,963.2700
2022-09-03T02:18:01.574Z,963.3300
2022-09-03T02:19:03.809Z,963.3300
2022-09-03T02:20:06.016Z,963.3100
2022-09-03T02:21:08.239Z,963.3100
2022-09-03T02:22:10.459Z,963.3300
2022-09-03T02:23:12.709Z,963.3700
2022-09-03T02:24:14.917Z,963.3900
2022-09-03T02:25:17.123Z,963.3900
2022-09-03T02:26:19.341Z,963.3900
2022-09-03T02:27:21.569Z,963.3900
2022-09-03T02:28:23.901Z,963.4300
2022-09-03T02:29:23.863Z,963.4100
2022-09-03T02:30:26.082Z,963.4100
2022-09-03T02:31:28.424Z,963.4300
2022-09-03T02:32:30.550Z,963.4300
2022-09-03T02:33:32.801Z,963.4700
2022-09-03T02:34:35.025Z,963.4800
2022-09-03T02:35:37.255Z,963.5000
2022-09-03T02:36:39.472Z,963.5200
2022-09-03T02:37:41.647Z,963.4800
2022-09-03T02:38:43.855Z,963.4700
2022-09-03T02:39:46.122Z,963.4500
2022-09-03T02:40:48.260Z,963.4800
2022-09-03T02:41:50.512Z,963.5000
2022-09-03T02:42:50.576Z,963.4800
2022-09-03T02:43:52.868Z,963.5000
2022-09-03T02:44:55.043Z,963.5200
2022-09-03T02:45:57.338Z,963.5000
2022-09-03T02:46:59.495Z,963.4800
2022-09-03T02:48:01.634Z,963.5000
2022-09-03T02:49:03.806Z,963.5400
2022-09-03T02:50:05.974Z,963.5400
2022-09-03T02:51:13.799Z,963.5200
2022-09-03T02:52:08.194Z,963.5000
2022-09-03T02:53:10.376Z,963.5000
2022-09-03T02:54:12.565Z,963.4700
2022-09-03T02:55:14.749Z,963.5000
2022-09-03T02:56:16.989Z,963.5600
2022-09-03T02:57:27.403Z,963.5400
2022-09-03T02:58:19.306Z,963.5200
2022-09-03T02:59:21.491Z,963.5400
2022-09-03T03:00:23.681Z,963.5400
2022-09-03T03:01:25.958Z,963.5200
2022-09-03T03:02:28.169Z,963.5000
2022-09-03T03:03:30.283Z,963.5000
2022-09-03T03:04:32.526Z,963.4800
2022-09-03T03:05:34.711Z,963.4800
2022-09-03T03:06:36.948Z,963.5000
2022-09-03T03:07:39.148Z,963.5200
2022-09-03T03:08:41.339Z,963.5400
2022-09-03T03:09:43.605Z,963.5600
2022-09-03T03:10:45.781Z,963.5400
2022-09-03T03:11:47.985Z,963.5600
2022-09-03T03:12:50.176Z,963.5600
2022-09-03T03:13:52.381Z,963.5800
2022-09-03T03:14:52.424Z,963.6200
2022-09-03T03:15:54.597Z,963.6200
2022-09-03T03:16:56.830Z,963.6400
2022-09-03T03:17:59.005Z,963.6200
2022-09-03T03:19:01.199Z,963.6200
2022-09-03T03:20:03.457Z,963.5800
2022-09-03T03:21:05.653Z,963.6000
2022-09-03T03:22:07.817Z,963.6800
2022-09-03T03:23:10.013Z,963.7400
2022-09-03T03:24:12.207Z,963.7200
2022-09-03T03:25:14.388Z,963.7200
2022-09-03T03:26:16.584Z,963.7200
2022-09-03T03:27:18.837Z,963.7800
2022-09-03T03:28:20.997Z,963.8200
2022-09-03T03:29:23.207Z,963.8400
2022-09-03T03:30:25.476Z,963.8600
2022-09-03T03:31:27.607Z,963.9000
2022-09-03T03:32:27.666Z,963.9400
2022-09-03T03:33:29.872Z,963.9500
2022-09-03T03:34:32.069Z,963.9000
2022-09-03T03:35:34.325Z,963.9700
2022-09-03T03:36:36.496Z,963.9900
2022-09-03T03:37:38.576Z,963.9900
2022-09-03T03:38:40.659Z,963.9900
2022-09-03T03:39:42.867Z,964.0100
2022-09-03T03:40:45.076Z,963.9700
2022-09-03T03:41:47.292Z,963.9700
2022-09-03T03:42:49.517Z,964.0300
2022-09-03T03:43:51.722Z,964.0500
2022-09-03T03:44:51.799Z,964.0700
2022-09-03T03:45:54.019Z,964.0500
2022-09-03T03:46:56.176Z,964.0500
2022-09-03T03:47:58.429Z,964.0500
2022-09-03T03:49:00.599Z,964.0300
2022-09-03T03:50:02.791Z,964.0100
2022-09-03T03:51:04.965Z,964.0100
2022-09-03T03:52:07.130Z,964.0500
2022-09-03T03:53:09.313Z,964.0900
2022-09-03T03:54:11.551Z,964.1100
2022-09-03T03:55:15.926Z,964.1100
2022-09-03T03:56:15.998Z,964.0700
2022-09-03T03:57:18.199Z,964.0900
2022-09-03T03:58:20.379Z,964.1100
2022-09-03T03:59:22.562Z,964.1100
2022-09-03T04:00:24.840Z,964.1700
2022-09-03T04:01:27.171Z,964.2300
2022-09-03T04:02:29.223Z,964.2500
2022-09-03T04:03:29.226Z,964.2900
2022-09-03T04:04:31.444Z,964.2900
2022-09-03T04:05:33.931Z,964.2300
2022-09-03T04:06:35.848Z,964.2500
2022-09-03T04:07:37.977Z,964.2900
2022-09-03T04:08:40.172Z,964.2900
2022-09-03T04:09:42.341Z,964.2900
2022-09-03T04:10:44.534Z,964.2700
2022-09-03T04:11:46.770Z,964.2900
2022-09-03T04:12:49.034Z,964.2700
2022-09-03T04:13:51.146Z,964.2900
2022-09-03T04:14:55.084Z,964.2900
2022-09-03T04:15:55.601Z,964.2500
2022-09-03T04:16:57.845Z,964.2100
2022-09-03T04:17:59.965Z,964.2100
2022-09-03T04:19:02.169Z,964.1900
2022-09-03T04:20:04.360Z,964.1900
2022-09-03T04:21:06.571Z,964.1500
2022-09-03T04:22:08.806Z,964.1500
2022-09-03T04:23:11.012Z,964.1500
2022-09-03T04:24:11.093Z,964.1100
2022-09-03T04:25:13.337Z,964.0700
2022-09-03T04:26:15.574Z,964.0300
2022-09-03T04:27:17.855Z,964.0300
2022-09-03T04:28:20.051Z,964.0300
2022-09-03T04:29:22.255Z,964.0300
2022-09-03T04:30:24.651Z,963.9900
2022-09-03T04:31:26.724Z,964.0100
2022-09-03T04:32:28.967Z,964.0300
2022-09-03T04:33:31.090Z,964.0300
2022-09-03T04:34:33.305Z,964.0300
2022-09-03T04:35:35.925Z,964.0100
2022-09-03T04:36:37.798Z,964.0100
2022-09-03T04:37:37.894Z,964.0100
2022-09-03T04:38:40.118Z,964.0300
2022-09-03T04:39:42.432Z,964.0100
2022-09-03T04:40:44.586Z,964.0500
2022-09-03T04:41:46.816Z,964.0500
2022-09-03T04:42:49.102Z,964.0300
2022-09-03T04:43:51.762Z,964.0300
2022-09-03T04:44:53.507Z,963.9700
2022-09-03T04:45:55.730Z,963.9500
2022-09-03T04:46:57.920Z,963.9700
2022-09-03T04:48:00.159Z,964.0100
2022-09-03T04:49:00.237Z,963.9500
2022-09-03T04:50:02.449Z,963.9900
2022-09-03T04:51:04.648Z,964.0300
2022-09-03T04:52:06.845Z,964.0300
2022-09-03T04:53:09.057Z,964.0500
2022-09-03T04:54:11.179Z,964.0300
2022-09-03T04:55:13.360Z,964.0300
2022-09-03T04:56:15.619Z,964.0300
2022-09-03T04:57:17.847Z,964.0300
2022-09-03T04:58:20.102Z,964.0500
2022-09-03T04:59:22.311Z,964.0300
2022-09-03T05:00:24.606Z,964.0300
2022-09-03T05:01:26.939Z,964.0300
2022-09-03T05:02:29.169Z,964.0300
2022-09-03T05:03:29.176Z,964.0500
2022-09-03T05:04:31.401Z,964.0100
2022-09-03T05:05:33.639Z,963.9900
2022-09-03T05:06:35.865Z,964.0100
2022-09-03T05:07:38.051Z,964.0100
2022-09-03T05:08:40.300Z,964.0100
2022-09-03T05:09:42.447Z,964.0100
2022-09-03T05:10:44.671Z,964.0100
2022-09-03T05:11:46.876Z,964.0300
2022-09-03T05:12:49.043Z,964.0300
2022-09-03T05:13:51.220Z,964.0500
2022-09-03T05:14:53.329Z,964.0900
2022-09-03T05:15:55.466Z,964.1100
2022-09-03T05:16:57.691Z,964.0700
2022-09-03T05:17:59.849Z,964.1100
2022-09-03T05:19:02.008Z,964.1300
2022-09-03T05:20:04.181Z,964.1300
2022-09-03T05:21:06.353Z,964.0900
2022-09-03T05:22:08.563Z,964.1100
2022-09-03T05:23:10.766Z,964.1500
2022-09-03T05:24:10.876Z,964.1500
2022-09-03T05:25:13.097Z,964.1500
2022-09-03T05:26:15.278Z,964.1700
2022-09-03T05:27:17.516Z,964.1500
2022-09-03T05:28:19.770Z,964.1500
2022-09-03T05:29:21.999Z,964.1700
2022-09-03T05:30:24.100Z,964.1500
2022-09-03T05:31:26.570Z,964.1700
2022-09-03T05:32:28.513Z,964.1700
2022-09-03T05:33:30.755Z,964.1900
2022-09-03T05:34:33.008Z,964.1700
2022-09-03T05:35:35.232Z,964.1300
2022-09-03T05:36:37.488Z,964.1700
2022-09-03T05:37:37.560Z,964.1300
2022-09-03T05:38:39.754Z,964.1300
2022-09-03T05:39:42.046Z,964.1300
2022-09-03T05:40:44.218Z,964.1500
2022-09-03T05:41:46.465Z,964.1700
2022-09-03T05:42:48.715Z,964.1700
2022-09-03T05:43:50.929Z,964.2100
2022-09-03T05:44:53.220Z,964.2300
2022-09-03T05:45:55.630Z,964.1900
2022-09-03T05:46:57.638Z,964.2100
2022-09-03T05:47:59.861Z,964.1900
2022-09-03T05:49:02.273Z,964.1900
2022-09-03T05:50:04.376Z,964.2100
2022-09-03T05:51:06.595Z,964.2100
2022-09-03T05:52:08.834Z,964.1700
2022-09-03T05:53:11.066Z,964.1500
2022-09-03T05:54:13.320Z,964.1900
2022-09-03T05:55:15.639Z,964.1700
2022-09-03T05:56:17.928Z,964.1300
2022-09-03T05:57:20.208Z,964.1300
2022-09-03T05:58:20.356Z,964.1300
2022-09-03T05:59:22.644Z,964.1500
2022-09-03T06:00:24.924Z,964.1300
2022-09-03T06:01:27.124Z,964.1300
2022-09-03T06:02:29.532Z,964.1100
2022-09-03T06:03:31.712Z,964.0500
2022-09-03T06:04:33.787Z,964.0700
2022-09-03T06:05:36.097Z,964.0300
2022-09-03T06:06:38.403Z,963.9700
2022-09-03T06:07:38.477Z,963.9700
2022-09-03T06:08:40.768Z,963.9900
2022-09-03T06:09:43.037Z,963.9700
2022-09-03T06:10:45.298Z,963.9500
2022-09-03T06:11:47.489Z,963.9000
2022-09-03T06:12:49.731Z,963.9200
2022-09-03T06:13:51.999Z,963.8600
2022-09-03T06:14:54.294Z,963.8600
2022-09-03T06:15:56.636Z,963.8400
2022-09-03T06:16:56.732Z,963.8400
2022-09-03T06:17:58.955Z,963.8400
2022-09-03T06:19:01.244Z,963.8400
2022-09-03T06:20:03.515Z,963.8800
2022-09-03T06:21:03.660Z,963.8600
2022-09-03T06:22:05.955Z,963.8400
2022-09-03T06:23:06.085Z,963.8000
2022-09-03T06:24:08.345Z,963.8000
2022-09-03T06:25:10.609Z,963.7800
2022-09-03T06:26:12.825Z,963.7800
2022-09-03T06:27:15.027Z,963.7400
2022-09-03T06:28:17.271Z,963.7400
2022-09-03T06:29:19.550Z,963.7200
2022-09-03T06:30:21.870Z,963.6800
2022-09-03T06:31:24.237Z,963.6400
2022-09-03T06:32:24.273Z,963.6400
2022-09-03T06:33:26.530Z,963.6600
2022-09-03T06:34:28.809Z,963.6600
2022-09-03T06:35:31.082Z,963.6800
2022-09-03T06:36:33.376Z,963.6400
2022-09-03T06:37:35.632Z,963.6200
2022-09-03T06:38:37.916Z,963.5600
2022-09-03T06:39:40.271Z,963.5800
2022-09-03T06:40:40.304Z,963.5600
2022-09-03T06:41:42.610Z,963.5400
2022-09-03T06:42:46.187Z,963.5800
2022-09-03T06:43:47.090Z,963.5600
2022-09-03T06:44:49.273Z,963.5800
2022-09-03T06:45:51.573Z,963.6200
2022-09-03T06:46:53.832Z,963.6600
2022-09-03T06:47:56.068Z,963.7000
2022-09-03T06:48:58.337Z,963.7200
2022-09-03T06:49:58.436Z,963.6800
2022-09-03T06:51:00.679Z,963.6800
2022-09-03T06:52:02.943Z,963.6800
2022-09-03T06:53:05.149Z,963.6600
2022-09-03T06:54:07.377Z,963.6200
2022-09-03T06:55:09.625Z,963.5800
2022-09-03T06:56:11.842Z,963.5400
2022-09-03T06:57:14.087Z,963.5400
2022-09-03T06:58:16.267Z,963.5400
2022-09-03T06:59:18.510Z,963.5200
2022-09-03T07:00:20.667Z,963.5200
2022-09-03T07:01:22.912Z,963.6000
2022-09-03T07:02:25.134Z,963.6200
2022-09-03T07:03:25.123Z,963.6200
2022-09-03T07:04:27.352Z,963.5800
2022-09-03T07:05:29.567Z,963.5600
2022-09-03T07:06:31.714Z,963.5600
2022-09-03T07:07:33.902Z,963.5600
2022-09-03T07:08:36.039Z,963.5400
2022-09-03T07:09:38.211Z,963.5200
2022-09-03T07:10:40.386Z,963.5000
2022-09-03T07:11:42.570Z,963.4700
2022-09-03T07:12:44.798Z,963.4500
2022-09-03T07:13:46.953Z,963.4300
2022-09-03T07:14:51.243Z,963.4500
2022-09-03T07:15:31.633Z,963.4100
2022-09-03T07:16:32.251Z,963.4500
2022-09-03T07:17:34.337Z,963.4300
2022-09-03T07:18:36.528Z,963.3900
2022-09-03T07:19:38.661Z,963.4100
2022-09-03T07:20:40.858Z,963.3900
2022-09-03T07:21:48.422Z,963.3900
2022-09-03T07:22:45.235Z,963.4300
2022-09-03T07:23:47.476Z,963.4100
2022-09-03T07:24:49.683Z,963.4300
2022-09-03T07:25:51.889Z,963.4100
2022-09-03T07:26:54.106Z,963.4100
2022-09-03T07:27:56.335Z,963.4100
2022-09-03T07:28:58.524Z,963.4300
2022-09-03T07:30:00.713Z,963.4100
2022-09-03T07:31:02.939Z,963.4100
2022-09-03T07:32:05.232Z,963.4300
2022-09-03T07:33:05.341Z,963.4500
2022-09-03T07:34:09.886Z,963.4700
2022-09-03T07:35:09.865Z,963.4500
2022-09-03T07:36:12.121Z,963.4700
2022-09-03T07:37:14.431Z,963.4500
2022-09-03T07:38:16.748Z,963.4500
2022-09-03T07:39:19.123Z,963.4100
2022-09-03T07:40:19.227Z,963.4300
2022-09-03T07:41:28.479Z,963.4100
2022-09-03T07:42:23.834Z,963.4300
2022-09-03T07:43:26.140Z,963.4800
2022-09-03T07:44:28.473Z,963.4700
2022-09-03T07:45:30.753Z,963.4800
2022-09-03T07:46:33.085Z,963.5000
2022-09-03T07:47:35.378Z,963.5000
2022-09-03T07:48:37.757Z,963.5000
2022-09-03T07:49:39.751Z,963.5000
2022-09-03T07:50:41.938Z,963.4800
2022-09-03T07:51:44.166Z,963.5000
2022-09-03T07:52:46.397Z,963.5200
2022-09-03T07:53:48.592Z,963.5400
2022-09-03T07:54:50.820Z,963.5600
2022-09-03T07:55:53.005Z,963.6000
2022-09-03T07:56:55.217Z,963.6000
2022-09-03T07:57:57.422Z,963.6400
2022-09-03T07:58:59.637Z,963.6400
2022-09-03T07:59:59.739Z,963.6400
2022-09-03T08:01:02.045Z,963.6200
2022-09-03T08:02:04.314Z,963.6400
2022-09-03T08:03:06.540Z,963.6200
2022-09-03T08:04:09.732Z,963.6200
2022-09-03T08:05:11.095Z,963.6000
2022-09-03T08:06:13.365Z,963.6200
2022-09-03T08:07:15.661Z,963.5800
2022-09-03T08:08:16.445Z,963.5800
2022-09-03T08:09:18.052Z,963.6000
2022-09-03T08:10:20.431Z,963.6000
2022-09-03T08:11:20.511Z,963.6000
2022-09-03T08:12:22.809Z,963.6000
2022-09-03T08:13:25.106Z,963.6000
2022-09-03T08:14:27.484Z,963.6000
2022-09-03T08:15:27.627Z,963.6400
2022-09-03T08:16:29.958Z,963.6000
2022-09-03T08:17:32.214Z,963.6000
2022-09-03T08:18:34.551Z,963.6000
2022-09-03T08:19:36.822Z,963.6000
2022-09-03T08:20:39.135Z,963.6200
2022-09-03T08:21:41.373Z,963.6600
2022-09-03T08:22:43.678Z,963.6600
2022-09-03T08:23:45.956Z,963.6800
2022-09-03T08:24:48.247Z,963.6400
2022-09-03T08:25:50.499Z,963.6800
2022-09-03T08:26:52.791Z,963.7000
2022-09-03T08:27:55.001Z,963.7200
2022-09-03T08:28:55.115Z,963.7400
2022-09-03T08:29:57.345Z,963.7400
2022-09-03T08:30:59.623Z,963.7400
2022-09-03T08:32:05.115Z,963.7400
2022-09-03T08:33:04.051Z,963.7200
2022-09-03T08:34:06.282Z,963.7200
2022-09-03T08:35:08.511Z,963.7200
2022-09-03T08:36:10.806Z,963.7000
2022-09-03T08:37:13.050Z,963.7400
2022-09-03T08:38:15.350Z,963.7400
2022-09-03T08:39:15.451Z,963.7600
2022-09-03T08:40:17.708Z,963.7800
2022-09-03T08:41:19.978Z,963.8200
2022-09-03T08:42:22.205Z,963.8400
2022-09-03T08:43:24.442Z,963.8200
2022-09-03T08:44:26.746Z,963.8200
2022-09-03T08:45:28.962Z,963.8200
2022-09-03T08:46:31.293Z,963.8600
2022-09-03T08:47:33.442Z,963.8400
2022-09-03T08:48:35.621Z,963.8600
2022-09-03T08:49:35.725Z,963.9200
2022-09-03T08:50:37.957Z,963.9200
2022-09-03T08:51:40.218Z,963.9500
2022-09-03T08:52:42.653Z,963.9700
2022-09-03T08:53:44.560Z,963.9700
2022-09-03T08:54:46.704Z,963.9700
2022-09-03T08:55:48.864Z,964.0100
2022-09-03T08:56:51.056Z,964.0100
2022-09-03T08:57:53.221Z,964.0700
2022-09-03T08:58:55.425Z,964.1100
2022-09-03T08:59:57.638Z,964.1100
2022-09-03T09:00:59.835Z,964.1300
2022-09-03T09:02:02.383Z,964.1300
2022-09-03T09:03:04.274Z,964.1300
2022-09-03T09:04:06.391Z,964.1300
2022-09-03T09:05:11.115Z,964.1300
2022-09-03T09:06:10.704Z,964.1100
2022-09-03T09:07:13.120Z,964.1100
2022-09-03T09:08:15.045Z,964.1100
2022-09-03T09:09:17.187Z,964.1100
2022-09-03T09:10:19.346Z,964.1100
2022-09-03T09:11:21.557Z,964.1100
2022-09-03T09:12:23.813Z,964.1300
2022-09-03T09:13:23.855Z,964.1500
2022-09-03T09:14:26.068Z,964.1700
2022-09-03T09:15:28.316Z,964.1900
2022-09-03T09:16:30.564Z,964.1900
2022-09-03T09:17:32.811Z,964.1900
2022-09-03T09:18:34.940Z,964.1700
2022-09-03T09:19:37.183Z,964.1700
2022-09-03T09:20:39.435Z,964.1100
2022-09-03T09:21:41.673Z,964.1100
2022-09-03T09:22:47.287Z,964.0900
2022-09-03T09:23:46.120Z,964.0900
2022-09-03T09:24:48.335Z,964.1500
2022-09-03T09:25:48.464Z,964.2300
2022-09-03T09:26:50.671Z,964.3100
2022-09-03T09:27:52.944Z,964.3700
2022-09-03T09:28:55.133Z,964.5000
2022-09-03T09:29:57.370Z,964.5600
2022-09-03T09:30:59.634Z,964.5500
2022-09-03T09:32:01.847Z,964.5600
2022-09-03T09:33:04.102Z,964.5800
2022-09-03T09:34:06.317Z,964.6200
2022-09-03T09:35:08.581Z,964.6200
2022-09-03T09:36:08.688Z,964.6200
2022-09-03T09:37:10.899Z,964.6400
2022-09-03T09:38:13.065Z,964.6000
2022-09-03T09:39:15.266Z,964.6600
2022-09-03T09:40:17.506Z,964.7400
2022-09-03T09:41:19.726Z,964.7200
2022-09-03T09:42:21.936Z,964.7400
2022-09-03T09:43:24.175Z,964.7400
2022-09-03T09:44:26.398Z,964.7600
2022-09-03T09:45:27.550Z,964.8200
2022-09-03T09:46:29.795Z,964.9000
2022-09-03T09:47:32.019Z,964.9200
2022-09-03T09:48:34.274Z,964.9600
2022-09-03T09:49:36.505Z,964.9600
2022-09-03T09:50:38.737Z,964.9800
2022-09-03T09:51:40.958Z,965.0000
2022-09-03T09:52:43.160Z,965.0200
2022-09-03T09:53:45.452Z,964.9800
2022-09-03T09:54:47.691Z,965.0500
2022-09-03T09:55:49.982Z,965.0900
2022-09-03T09:56:52.173Z,965.0500
2022-09-03T09:57:54.431Z,965.1300
2022-09-03T09:58:56.675Z,965.1500
2022-09-03T09:59:58.898Z,965.1700
2022-09-03T10:01:01.137Z,965.1900
2022-09-03T10:02:03.467Z,965.2100
2022-09-03T10:03:05.611Z,965.1900
2022-09-03T10:04:07.770Z,965.1900
2022-09-03T10:05:09.919Z,965.1900
2022-09-03T10:06:12.167Z,965.2500
2022-09-03T10:07:14.364Z,965.2900
2022-09-03T10:08:14.447Z,965.3100
2022-09-03T10:09:16.704Z,965.3500
2022-09-03T10:10:18.893Z,965.3300
2022-09-03T10:11:21.089Z,965.3700
2022-09-03T10:12:23.300Z,965.4400
2022-09-03T10:13:23.377Z,965.4400
2022-09-03T10:14:25.644Z,965.4400
2022-09-03T10:15:27.895Z,965.4800
2022-09-03T10:16:30.097Z,965.5400
2022-09-03T10:17:37.465Z,965.5600
2022-09-03T10:18:34.499Z,965.5600
2022-09-03T10:19:36.763Z,965.5600
2022-09-03T10:20:38.975Z,965.6600
2022-09-03T10:21:41.208Z,965.5800
2022-09-03T10:22:41.298Z,965.5400
2022-09-03T10:23:43.522Z,965.5200
2022-09-03T10:24:45.787Z,965.5400
2022-09-03T10:25:47.982Z,965.5200
2022-09-03T10:26:50.198Z,965.4600
2022-09-03T10:27:52.871Z,965.4800
2022-09-03T10:28:56.094Z,965.5800
2022-09-03T10:29:57.080Z,965.5400
2022-09-03T10:30:57.317Z,965.6600
2022-09-03T10:31:59.533Z,965.6000
2022-09-03T10:33:01.832Z,965.5400
2022-09-03T10:34:04.142Z,965.5600
2022-09-03T10:35:06.384Z,965.5000
2022-09-03T10:36:08.626Z,965.5000
2022-09-03T10:37:10.891Z,965.4400
2022-09-03T10:38:13.167Z,965.4400
2022-09-03T10:39:15.376Z,965.3900
2022-09-03T10:40:17.736Z,965.3100
2022-09-03T10:41:19.889Z,965.2700
2022-09-03T10:42:20.058Z,965.2700
2022-09-03T10:43:22.389Z,965.2700
2022-09-03T10:44:24.634Z,965.2500
2022-09-03T10:45:26.988Z,965.2500
2022-09-03T10:46:27.143Z,965.2900
2022-09-03T10:47:29.389Z,965.3100
2022-09-03T10:48:31.694Z,965.3300
2022-09-03T10:49:33.977Z,965.3500
2022-09-03T10:50:36.379Z,965.3300
2022-09-03T10:51:38.562Z,965.3300
2022-09-03T10:52:40.851Z,965.3300
2022-09-03T10:53:41.038Z,965.2700
2022-09-03T10:54:43.293Z,965.2700
2022-09-03T10:55:45.581Z,965.2500
2022-09-03T10:56:47.846Z,965.2900
2022-09-03T10:57:50.047Z,965.2500
2022-09-03T10:58:52.226Z,965.2500
2022-09-03T10:59:54.427Z,965.1900
2022-09-03T11:00:56.660Z,965.1700
2022-09-03T11:01:58.916Z,965.1500
2022-09-03T11:03:01.195Z,965.1900
2022-09-03T11:04:03.325Z,965.2100
2022-09-03T11:05:05.447Z,965.2100
2022-09-03T11:06:07.644Z,965.2100
2022-09-03T11:07:07.715Z,965.1700
2022-09-03T11:08:09.860Z,965.1900
2022-09-03T11:09:12.055Z,965.2500
2022-09-03T11:10:14.290Z,965.2300
2022-09-03T11:11:16.428Z,965.2300
2022-09-03T11:12:18.600Z,965.2300
2022-09-03T11:13:20.746Z,965.2100
2022-09-03T11:14:22.939Z,965.1500
2022-09-03T11:15:27.662Z,965.2100
2022-09-03T11:16:27.456Z,965.2900
2022-09-03T11:17:29.612Z,965.2100
2022-09-03T11:18:31.866Z,965.2300
2022-09-03T11:19:34.145Z,965.2500
2022-09-03T11:20:36.442Z,965.2700
2022-09-03T11:21:36.612Z,965.2900
2022-09-03T11:22:38.870Z,965.2500
2022-09-03T11:23:41.273Z,965.1700
2022-09-03T11:24:43.427Z,965.1900
2022-09-03T11:25:43.584Z,965.1900
2022-09-03T11:26:45.910Z,965.2100
2022-09-03T11:27:48.182Z,965.1500
2022-09-03T11:28:50.480Z,965.1700
2022-09-03T11:29:52.817Z,965.1500
2022-09-03T11:30:55.143Z,965.1900
2022-09-03T11:31:57.443Z,965.1500
2022-09-03T11:32:59.721Z,965.1300
2022-09-03T11:34:02.007Z,965.1500
2022-09-03T11:35:04.266Z,965.2100
2022-09-03T11:36:04.350Z,965.1900
2022-09-03T11:37:06.655Z,965.1500
2022-09-03T11:38:08.888Z,965.1100
2022-09-03T11:39:11.142Z,965.0300
2022-09-03T11:40:13.592Z,964.9800
2022-09-03T11:41:15.655Z,964.9400
2022-09-03T11:42:17.966Z,964.8600
2022-09-03T11:43:20.185Z,964.8600
2022-09-03T11:44:20.261Z,964.8600
2022-09-03T11:45:22.538Z,964.8200
2022-09-03T11:46:24.834Z,964.9000
2022-09-03T11:47:27.019Z,964.9000
2022-09-03T11:48:29.345Z,964.9000
2022-09-03T11:49:31.544Z,964.9200
2022-09-03T11:50:33.924Z,964.8800
2022-09-03T11:51:36.119Z,965.0200
2022-09-03T11:52:38.397Z,964.9600
2022-09-03T11:53:40.643Z,964.9400
2022-09-03T11:54:42.889Z,964.9600
2022-09-03T11:55:45.155Z,965.0200
2022-09-03T11:56:47.401Z,965.0200
2022-09-03T11:57:49.610Z,965.0500
2022-09-03T11:58:51.736Z,965.0000
2022-09-03T11:59:53.864Z,965.0300
2022-09-03T12:00:56.041Z,965.0500
2022-09-03T12:01:58.175Z,965.0300
2022-09-03T12:03:00.458Z,964.9600
2022-09-03T12:04:02.439Z,964.9800
2022-09-03T12:05:04.715Z,965.0000
2022-09-03T12:06:06.738Z,965.0700
2022-09-03T12:07:08.889Z,964.9800
2022-09-03T12:08:09.206Z,964.9200